Southwick, Idaho
Current Conditions -  °F | °C
As of 1:53 AM on Wednesday 26 Nov 2014 (Local Time) from KPUW Reporting Station
Moderate Fog Moderate Fog  
Wind Chill: 40°   Ceiling: 100
Heat Index: 40°   Visibility: 0.25mi
Dew Point: 40°   Wind: 3mph
Humidity: 100%   Direction: 260°W
Pressure: 30.18"   Gusts: NA
Location:  46.6455°N, 116.545°W
Report Text: KPUW 260953Z AUTO 26003KT 1/4SM FG VV001 04/04 A3018 RMK AO2 RAE17 SLP233 P0000 T00440044
Loading
Personal Weather Stations






























Interactive Weather Map New forecast layout! Learn more

10-Day Weather Forecast

Advertisements
Track Severe Weather on mobile